»·PEaware :: N158DA KJAC-KBOI

N158DA :: KJAC-KBOI

FLIGHT INFORMATION

Flight Status: Arrived
Operator: Privately registered:
United States
More flights under this callsign
Pilot: Ron R. (25532)
Aircraft: Cessna 525C Citation CJ4
(C25C)
More flights by this aircraft type
Origin: KJAC Jackson Hole
United States
Destination: KBOI Boise Air Terminal/Gowen
United States
More flights between these airports :: More routes between these airports
Route: ALPIN2 KICNE PIH REAPS KOURT3
File this flight plan on PilotEdge
Remarks:
Altitude:
(Current/Filed)
26,000ft
Speed:
(Current/Filed)
440kts
Departed: 21-Aug-21 08:48 PM
Arrived: 21-Aug-21 09:38 PM
Distance/Time
Traveled:
239nm/0:50
Distance/Time
To Go:
Arrived

Flight Plot

Page will automatically refresh every two minutes.

Flight plan parsing failed; only flown route is shown


Map Options




Map Legend


Flown Route
Filed Route
Departure Airport
Arrival Airport
Navaid (VOR, NDB)
Fix

Horizontal Profiles

Position Reports

Time Latitude Longitude Heading Altitude Ground
Speed
21-Aug-21 20:25 43.604828 -110.736508 198 6430ft 0kts
21-Aug-21 20:26 43.604828 -110.736508 198 6430ft 0kts
21-Aug-21 20:27 43.604828 -110.736508 198 6430ft 0kts
21-Aug-21 20:28 43.604828 -110.736508 198 6430ft 0kts
21-Aug-21 20:29 43.604828 -110.736508 198 6430ft 0kts
21-Aug-21 20:30 43.604828 -110.736508 198 6430ft 0kts
21-Aug-21 20:31 43.604828 -110.736508 198 6430ft 0kts
21-Aug-21 20:32 43.604828 -110.736508 198 6430ft 0kts
21-Aug-21 20:33 43.604828 -110.736508 198 6430ft 0kts
21-Aug-21 20:34 43.604828 -110.736508 198 6430ft 0kts
21-Aug-21 20:35 43.604828 -110.736508 198 6430ft 0kts
21-Aug-21 20:36 43.604828 -110.736508 198 6430ft 0kts
21-Aug-21 20:37 43.604828 -110.736508 198 6430ft 0kts
21-Aug-21 20:38 43.604828 -110.736508 198 6430ft 0kts
21-Aug-21 20:39 43.604828 -110.736508 198 6430ft 0kts
21-Aug-21 20:40 43.604674 -110.737052 299 6430ft 5kts
21-Aug-21 20:41 43.607234 -110.736171 19 6436ft 14kts
21-Aug-21 20:42 43.610384 -110.734635 19 6443ft 12kts
21-Aug-21 20:43 43.614868 -110.732571 352 6453ft 5kts
21-Aug-21 20:44 43.614952 -110.732593 343 6453ft 0kts
21-Aug-21 20:45 43.614952 -110.732593 343 6453ft 0kts
21-Aug-21 20:46 43.615240 -110.733181 290 6454ft 7kts
21-Aug-21 20:47 43.601933 -110.740440 200 6619ft 162kts
21-Aug-21 20:48 43.553711 -110.773451 212 9874ft 211kts
21-Aug-21 20:49 43.494474 -110.812301 201 13222ft 257kts
21-Aug-21 20:50 43.424457 -110.851892 211 16973ft 280kts
21-Aug-21 20:51 43.353056 -110.902088 207 20455ft 296kts
21-Aug-21 20:52 43.276393 -110.950859 207 23190ft 315kts
21-Aug-21 20:53 43.215298 -111.041808 265 23371ft 386kts
21-Aug-21 20:54 43.218640 -111.194165 265 23352ft 396kts
21-Aug-21 20:55 43.217048 -111.341261 266 23651ft 371kts
21-Aug-21 20:56 43.216181 -111.471801 263 25635ft 315kts
21-Aug-21 20:57 43.206252 -111.583409 242 26551ft 292kts
21-Aug-21 20:58 43.169280 -111.693870 241 26564ft 352kts
21-Aug-21 20:59 43.129415 -111.825411 242 26547ft 391kts
21-Aug-21 21:00 43.085919 -111.965491 243 26514ft 405kts
21-Aug-21 21:01 43.041689 -112.108430 243 26507ft 408kts
21-Aug-21 21:02 42.998421 -112.247748 242 26506ft 391kts
21-Aug-21 21:03 42.956048 -112.382029 243 26504ft 381kts
21-Aug-21 21:04 42.914638 -112.514014 244 26493ft 377kts
21-Aug-21 21:05 42.875369 -112.645787 259 26483ft 379kts
21-Aug-21 21:06 42.899006 -112.788979 281 26485ft 387kts
21-Aug-21 21:07 42.907335 -112.827391 281 26483ft 385kts
21-Aug-21 21:10 43.019144 -113.369170 280 26426ft 402kts
21-Aug-21 21:11 43.049040 -113.517851 281 26119ft 410kts
21-Aug-21 21:12 43.078919 -113.666590 281 24480ft 401kts
21-Aug-21 21:13 43.106895 -113.806140 281 24349ft 363kts
21-Aug-21 21:14 43.133281 -113.938792 281 24335ft 362kts
21-Aug-21 21:15 43.159679 -114.072663 281 24323ft 364kts
21-Aug-21 21:16 43.185659 -114.206396 281 24323ft 364kts
21-Aug-21 21:17 43.211608 -114.340484 281 24324ft 365kts
21-Aug-21 21:18 43.237604 -114.475263 281 24317ft 365kts
21-Aug-21 21:19 43.263266 -114.609774 281 24297ft 372kts
21-Aug-21 21:20 43.290971 -114.754876 281 23127ft 406kts
21-Aug-21 21:21 43.317434 -114.894988 281 20952ft 354kts
21-Aug-21 21:22 43.341473 -115.022809 281 18995ft 337kts
21-Aug-21 21:23 43.364259 -115.144846 281 17223ft 323kts
21-Aug-21 21:24 43.385415 -115.259209 281 15774ft 294kts
21-Aug-21 21:25 43.405089 -115.366416 281 14446ft 291kts
21-Aug-21 21:26 43.425071 -115.475929 282 12858ft 299kts
21-Aug-21 21:27 43.444734 -115.584623 282 11256ft 281kts
21-Aug-21 21:28 43.450448 -115.692562 270 9677ft 283kts
21-Aug-21 21:29 43.451754 -115.799034 272 8217ft 271kts
21-Aug-21 21:30 43.452860 -115.892441 272 8123ft 220kts
21-Aug-21 21:31 43.475052 -115.970637 300 6653ft 220kts
21-Aug-21 21:32 43.500884 -116.035870 299 5516ft 166kts
21-Aug-21 21:33 43.520709 -116.090979 294 4619ft 160kts
21-Aug-21 21:34 43.537583 -116.141696 296 3881ft 128kts
21-Aug-21 21:35 43.552678 -116.185434 294 3139ft 125kts
21-Aug-21 21:36 43.565583 -116.223328 295 2849ft 78kts
21-Aug-21 21:37 43.570772 -116.236437 28 2835ft 8kts
21-Aug-21 21:38 43.570891 -116.235404 113 2835ft 11kts
21-Aug-21 21:39 43.569127 -116.229696 94 2841ft 15kts
21-Aug-21 21:40 43.569198 -116.227325 182 2843ft 0kts
21-Aug-21 21:41 43.569198 -116.227325 182 2843ft 0kts
21-Aug-21 21:42 43.569198 -116.227325 182 2843ft 0kts
21-Aug-21 21:43 43.569198 -116.227325 182 2843ft 0kts
21-Aug-21 21:44 43.569198 -116.227325 182 2843ft 0kts
21-Aug-21 21:45 43.569198 -116.227325 182 2843ft 0kts
21-Aug-21 21:46 43.569198 -116.227325 182 2843ft 0kts

Navigation Log

Ident Type
Flight plan parsing failed, navigation log unavailable